createdAt,value
2022-12-01T06:02:32.299Z,38.90
2022-12-01T06:04:59.272Z,44.13
2022-12-01T06:07:26.024Z,39.55
2022-12-01T06:09:54.554Z,41.60
2022-12-01T06:12:21.185Z,42.72
2022-12-01T06:14:48.093Z,44.13
2022-12-01T06:17:14.642Z,40.25
2022-12-01T06:19:43.695Z,40.30
2022-12-01T06:22:10.631Z,41.17
2022-12-01T06:24:37.844Z,42.75
2022-12-01T06:27:04.458Z,41.35
2022-12-01T06:29:31.558Z,39.85
2022-12-01T06:31:58.214Z,38.15
2022-12-01T06:34:25.407Z,43.85
2022-12-01T06:36:51.946Z,43.85
2022-12-01T06:39:19.265Z,42.70
2022-12-01T06:41:45.978Z,43.63
2022-12-01T06:44:12.990Z,40.28
2022-12-01T06:46:39.585Z,42.10
2022-12-01T06:49:06.503Z,42.03
2022-12-01T06:51:34.309Z,43.28
2022-12-01T06:54:05.418Z,39.58
2022-12-01T06:56:32.477Z,40.55
2022-12-01T06:58:59.900Z,39.97
2022-12-01T07:01:28.268Z,44.20
2022-12-01T07:03:58.687Z,41.33
2022-12-01T07:06:25.708Z,41.67
2022-12-01T07:08:53.398Z,41.85
2022-12-01T07:11:20.094Z,40.13
2022-12-01T07:13:47.453Z,41.65
2022-12-01T07:16:14.139Z,45.35
2022-12-01T07:18:41.289Z,41.33
2022-12-01T07:21:11.358Z,44.03
2022-12-01T07:23:38.824Z,44.63
2022-12-01T07:26:07.039Z,42.70
2022-12-01T07:28:34.549Z,41.75
2022-12-01T07:31:07.358Z,41.85
2022-12-01T07:33:34.828Z,47.25
2022-12-01T07:36:01.828Z,43.75
2022-12-01T07:38:29.804Z,41.75
2022-12-01T07:41:05.822Z,46.15
2022-12-01T07:43:33.686Z,39.83
2022-12-01T07:46:18.909Z,42.60
2022-12-01T07:48:49.520Z,45.20
2022-12-01T07:51:16.841Z,45.50
2022-12-01T07:53:45.605Z,46.10
2022-12-01T07:56:12.537Z,42.08
2022-12-01T07:58:39.987Z,44.70
2022-12-01T08:01:12.584Z,45.83
2022-12-01T08:03:40.955Z,44.30
2022-12-01T08:06:08.427Z,45.13
2022-12-01T08:08:39.072Z,44.60
2022-12-01T08:11:19.104Z,46.22
2022-12-01T08:13:46.856Z,43.80
2022-12-01T08:16:15.967Z,44.50
2022-12-01T08:18:44.108Z,42.42
2022-12-01T08:21:19.532Z,40.45
2022-12-01T08:23:56.052Z,39.10
2022-12-01T08:26:24.542Z,42.90
2022-12-01T08:28:54.883Z,41.07
2022-12-01T08:31:33.178Z,40.05
2022-12-01T08:34:00.706Z,39.42
2022-12-01T08:36:43.367Z,39.65
2022-12-01T08:39:24.306Z,41.35
2022-12-01T08:41:51.190Z,39.25
2022-12-01T08:44:18.643Z,40.28
2022-12-01T08:46:48.671Z,40.78
2022-12-01T08:49:18.766Z,41.53
2022-12-01T08:51:48.426Z,41.63
2022-12-01T08:54:15.914Z,42.00
2022-12-01T08:56:44.685Z,39.58
2022-12-01T08:59:14.266Z,39.92
2022-12-01T09:01:52.517Z,39.53
2022-12-01T09:04:35.174Z,39.38
2022-12-01T09:07:04.910Z,36.95
2022-12-01T09:09:32.190Z,38.88
2022-12-01T09:11:58.994Z,42.47
2022-12-01T09:14:28.815Z,39.85
2022-12-01T09:16:58.665Z,37.20
2022-12-01T09:19:29.252Z,37.30
2022-12-01T09:21:56.276Z,35.05
2022-12-01T09:24:25.559Z,36.60
2022-12-01T09:26:59.450Z,38.08
2022-12-01T09:29:30.201Z,36.38
2022-12-01T09:32:11.251Z,37.30
2022-12-01T09:34:53.965Z,39.42
2022-12-01T09:37:21.229Z,39.33
2022-12-01T09:39:48.270Z,38.03
2022-12-01T09:42:19.345Z,36.55
2022-12-01T09:44:55.789Z,38.67
2022-12-01T09:47:34.480Z,42.35
2022-12-01T09:50:20.157Z,36.40
2022-12-01T09:53:20.146Z,36.33
2022-12-01T09:55:47.213Z,39.38
2022-12-01T09:58:21.132Z,38.40
2022-12-01T10:00:50.423Z,38.75
2022-12-01T10:03:46.916Z,39.35
2022-12-01T10:06:28.753Z,36.65
2022-12-01T10:09:27.924Z,37.55
2022-12-01T10:12:00.895Z,36.90
2022-12-01T10:14:31.783Z,38.33
2022-12-01T10:17:07.255Z,38.47
2022-12-01T10:19:40.319Z,37.10
2022-12-01T10:22:33.638Z,39.83
2022-12-01T10:25:15.319Z,37.78
2022-12-01T10:28:11.572Z,36.03
2022-12-01T10:30:50.424Z,34.15
2022-12-01T10:33:17.673Z,35.40
2022-12-01T10:35:44.483Z,35.40
2022-12-01T10:38:35.200Z,32.83
2022-12-01T10:41:04.383Z,31.67
2022-12-01T10:43:39.579Z,30.48
2022-12-01T10:46:27.400Z,32.50
2022-12-01T10:49:00.551Z,30.00
2022-12-01T10:51:28.154Z,31.42
2022-12-01T10:54:00.589Z,31.23
2022-12-01T10:56:28.093Z,33.03
2022-12-01T10:58:58.741Z,28.92
2022-12-01T11:01:28.197Z,30.42
2022-12-01T11:04:06.291Z,30.23
2022-12-01T11:06:34.648Z,29.77
2022-12-01T11:09:04.332Z,28.95
2022-12-01T11:14:21.396Z,30.67
2022-12-01T11:16:51.868Z,29.27
2022-12-01T11:19:34.785Z,29.88
2022-12-01T11:22:20.452Z,32.25
2022-12-01T11:24:53.210Z,33.78
2022-12-01T11:27:23.512Z,30.10
2022-12-01T11:29:52.924Z,32.30
2022-12-01T11:32:30.535Z,31.70
2022-12-01T11:34:59.078Z,34.85
2022-12-01T11:37:36.350Z,31.10
2022-12-01T11:40:13.659Z,31.33
2022-12-01T11:42:41.722Z,30.85
2022-12-01T11:45:20.550Z,32.20
2022-12-01T11:48:01.794Z,30.98
2022-12-01T11:50:31.874Z,29.00
2022-12-01T11:52:59.346Z,26.70
2022-12-01T11:55:28.096Z,27.02
2022-12-01T11:57:59.621Z,26.38
2022-12-01T12:00:34.850Z,25.10
2022-12-01T12:03:19.642Z,23.45
2022-12-01T12:06:39.130Z,25.30
2022-12-01T12:11:53.469Z,24.40
2022-12-01T12:14:40.103Z,23.35
2022-12-01T12:17:39.279Z,27.38
2022-12-01T12:23:08.101Z,25.20
2022-12-01T12:26:08.368Z,26.02
2022-12-01T12:29:12.255Z,26.23
2022-12-01T12:31:55.866Z,28.00
2022-12-01T12:34:49.622Z,25.92
2022-12-01T12:37:25.067Z,28.17
2022-12-01T12:40:04.849Z,27.35
2022-12-01T12:42:40.139Z,24.95
2022-12-01T12:45:22.882Z,27.20
2022-12-01T12:48:14.533Z,27.95
2022-12-01T12:51:08.935Z,28.15
2022-12-01T12:53:45.054Z,26.73
2022-12-01T12:56:15.504Z,27.38
2022-12-01T12:58:53.514Z,30.95
2022-12-01T13:01:29.075Z,25.17
2022-12-01T13:04:17.860Z,25.55
2022-12-01T13:06:54.516Z,27.88
2022-12-01T13:09:32.054Z,29.73
2022-12-01T13:12:17.214Z,28.95
2022-12-01T13:14:55.136Z,27.25
2022-12-01T13:17:33.678Z,28.95
2022-12-01T13:20:00.962Z,28.23
2022-12-01T13:22:34.480Z,31.90
2022-12-01T13:25:02.729Z,29.52
2022-12-01T13:27:34.886Z,28.38
2022-12-01T13:30:01.869Z,30.83
2022-12-01T13:32:36.620Z,29.52
2022-12-01T13:35:07.916Z,29.15
2022-12-01T13:37:38.963Z,30.48
2022-12-01T13:40:27.691Z,28.83
2022-12-01T13:43:08.873Z,29.85
2022-12-01T13:45:39.978Z,29.58
2022-12-01T13:48:30.327Z,29.38
2022-12-01T13:51:00.150Z,27.35
2022-12-01T13:53:32.511Z,29.23
2022-12-01T13:56:17.440Z,30.20
2022-12-01T13:58:47.061Z,31.67
2022-12-01T14:01:19.906Z,30.40
2022-12-01T14:04:03.850Z,28.65
2022-12-01T14:06:51.384Z,28.52
2022-12-01T14:09:32.431Z,33.22
2022-12-01T14:12:02.912Z,30.60
2022-12-01T14:14:38.196Z,31.25
2022-12-01T14:17:06.031Z,29.10
2022-12-01T14:19:39.270Z,30.13
2022-12-01T14:22:07.832Z,30.88
2022-12-01T14:24:39.207Z,29.60
2022-12-01T14:27:07.658Z,29.42
2022-12-01T14:29:40.270Z,30.57
2022-12-01T14:32:15.703Z,30.63
2022-12-01T14:34:43.285Z,28.73
2022-12-01T14:37:13.371Z,31.77
2022-12-01T14:39:52.464Z,29.27
2022-12-01T14:43:02.192Z,30.97
2022-12-01T14:45:35.757Z,31.73
2022-12-01T14:48:06.141Z,28.63
2022-12-01T14:50:53.269Z,31.85
2022-12-01T14:53:31.259Z,32.08
2022-12-01T14:56:11.686Z,31.27
2022-12-01T14:58:39.264Z,29.33
2022-12-01T15:01:14.054Z,29.35
2022-12-01T15:03:49.471Z,29.38
2022-12-01T15:06:21.626Z,29.83
2022-12-01T15:12:03.011Z,36.20
2022-12-01T15:14:33.674Z,39.28
2022-12-01T15:17:02.527Z,36.92
2022-12-01T15:19:39.329Z,40.03
2022-12-01T15:22:13.491Z,40.83
2022-12-01T15:24:41.232Z,39.35
2022-12-01T15:27:23.702Z,34.10
2022-12-01T15:29:51.291Z,33.47
2022-12-01T15:32:21.322Z,30.23
2022-12-01T15:34:52.629Z,31.90
2022-12-01T15:37:24.146Z,30.92
2022-12-01T15:43:19.708Z,36.05
2022-12-01T15:45:56.660Z,35.45
2022-12-01T15:48:33.093Z,35.33
2022-12-01T15:51:08.093Z,30.60
2022-12-01T15:53:38.726Z,37.22
2022-12-01T15:56:09.237Z,102.78
2022-12-01T15:58:50.078Z,81.50
2022-12-01T16:01:21.033Z,66.07
2022-12-01T16:03:50.399Z,46.03
2022-12-01T16:06:18.155Z,41.30
2022-12-01T16:09:01.148Z,33.70
2022-12-01T16:11:28.873Z,33.55
2022-12-01T16:13:55.943Z,33.88
2022-12-01T16:16:36.299Z,34.95
2022-12-01T16:19:09.859Z,35.72
2022-12-01T16:21:52.899Z,30.85
2022-12-01T16:24:19.778Z,31.65
2022-12-01T16:26:57.738Z,30.80
2022-12-01T16:29:27.253Z,30.90
2022-12-01T16:32:19.284Z,28.50
2022-12-01T16:34:46.632Z,29.27
2022-12-01T16:37:15.602Z,30.80
2022-12-01T16:39:43.427Z,30.17
2022-12-01T16:42:30.257Z,28.13
2022-12-01T16:45:00.442Z,29.90
2022-12-01T16:47:27.114Z,29.48
2022-12-01T16:49:54.474Z,29.58
2022-12-01T16:52:44.142Z,25.88
2022-12-01T16:55:48.241Z,25.60
2022-12-01T16:58:14.916Z,25.08
2022-12-01T17:00:42.506Z,25.60
2022-12-01T17:03:16.236Z,24.67
2022-12-01T17:05:43.476Z,24.83
2022-12-01T17:08:10.137Z,23.33
2022-12-01T17:10:41.471Z,25.38
2022-12-01T17:13:08.827Z,24.20
2022-12-01T17:15:36.147Z,25.95
2022-12-01T17:18:02.748Z,26.88
2022-12-01T17:20:39.696Z,25.23
2022-12-01T17:23:06.736Z,25.70
2022-12-01T17:25:41.068Z,27.13
2022-12-01T17:28:13.933Z,27.23
2022-12-01T17:30:41.244Z,31.02
2022-12-01T17:33:07.945Z,30.17
2022-12-01T17:35:35.390Z,30.05
2022-12-01T17:38:02.018Z,28.02
2022-12-01T17:40:29.437Z,28.48
2022-12-01T17:42:58.483Z,27.05
2022-12-01T17:45:25.842Z,28.58
2022-12-01T17:47:54.424Z,27.08
2022-12-01T17:50:34.821Z,25.97
2022-12-01T17:53:17.959Z,26.58
2022-12-01T17:56:08.637Z,25.00
2022-12-01T18:02:50.029Z,24.92
2022-12-01T18:05:26.568Z,55.28
2022-12-01T18:07:58.936Z,33.15
2022-12-01T18:10:26.790Z,27.77
2022-12-01T18:13:37.171Z,25.45
2022-12-01T18:16:21.386Z,25.85
2022-12-01T18:18:48.375Z,22.83
2022-12-01T18:21:22.460Z,23.55
2022-12-01T18:23:58.083Z,23.88
2022-12-01T18:26:26.493Z,21.17
2022-12-01T18:29:16.161Z,22.27
2022-12-01T18:31:56.695Z,21.17
2022-12-01T18:34:40.420Z,21.67
2022-12-01T18:39:56.792Z,21.88
2022-12-01T18:42:24.288Z,22.90
2022-12-01T18:44:51.964Z,21.58
2022-12-01T18:47:18.644Z,21.60
2022-12-01T18:49:46.158Z,22.63
2022-12-01T18:52:12.702Z,23.40
2022-12-01T18:54:39.847Z,23.42
2022-12-01T18:57:06.417Z,23.95
2022-12-01T18:59:33.636Z,23.02
2022-12-01T19:02:00.334Z,22.35
2022-12-01T19:04:27.602Z,20.60
2022-12-01T19:06:55.228Z,18.67
2022-12-01T19:09:22.578Z,22.55
2022-12-01T19:11:49.124Z,19.98
2022-12-01T19:14:19.059Z,19.95
2022-12-01T19:16:46.334Z,17.95
2022-12-01T19:19:13.987Z,19.15
2022-12-01T19:21:40.712Z,20.00
2022-12-01T19:24:07.717Z,17.05
2022-12-01T19:30:48.433Z,21.15
2022-12-01T19:33:15.671Z,23.08
2022-12-01T19:35:42.890Z,21.95
2022-12-01T19:38:10.290Z,24.75
2022-12-01T19:40:39.014Z,24.63
2022-12-01T19:43:05.656Z,23.95
2022-12-01T19:45:33.973Z,28.60
2022-12-01T19:48:00.676Z,28.65
2022-12-01T19:50:28.120Z,28.92
2022-12-01T19:52:54.666Z,27.45
2022-12-01T19:55:21.883Z,27.65
2022-12-01T19:57:51.845Z,27.35
2022-12-01T20:00:22.255Z,29.20
2022-12-01T20:02:49.643Z,25.70
2022-12-01T20:05:17.355Z,23.70
2022-12-01T20:07:44.214Z,24.63
2022-12-01T20:10:11.387Z,24.88
2022-12-01T20:12:37.991Z,23.95
2022-12-01T20:15:08.576Z,26.55
2022-12-01T20:17:36.760Z,24.60
2022-12-01T20:20:05.250Z,25.50
2022-12-01T20:22:35.944Z,26.42
2022-12-01T20:25:12.840Z,25.35
2022-12-01T20:27:39.716Z,25.17
2022-12-01T20:30:07.280Z,23.15
2022-12-01T20:32:33.889Z,25.10
2022-12-01T20:35:02.465Z,24.02
2022-12-01T20:37:29.058Z,22.60
2022-12-01T20:39:56.369Z,24.48
2022-12-01T20:42:24.462Z,25.23
2022-12-01T20:44:51.946Z,26.05
2022-12-01T20:47:20.559Z,25.40
2022-12-01T20:49:47.531Z,28.23
2022-12-01T20:52:14.256Z,26.25
2022-12-01T20:54:42.760Z,27.58
2022-12-01T20:57:09.790Z,27.00
2022-12-01T20:59:37.051Z,28.42
2022-12-01T21:02:03.635Z,28.27
2022-12-01T21:04:31.072Z,29.35
2022-12-01T21:06:58.526Z,26.98
2022-12-01T21:09:25.888Z,26.48
2022-12-01T21:12:11.206Z,29.27
2022-12-01T21:15:14.652Z,29.48
2022-12-01T21:17:46.419Z,28.70
2022-12-01T21:20:51.011Z,30.88
2022-12-01T21:23:17.987Z,29.55
2022-12-01T21:25:45.195Z,29.45
2022-12-01T21:28:20.985Z,30.30
